sensor_id;sensor_type;location;lat;lon;timestamp;pressure;altitude;pressure_sealevel;temperature;humidity
60489;BME280;46331;49.252;8.904;2023-05-12T00:00:01;99485.91;;;11.76;100.00
60489;BME280;46331;49.252;8.904;2023-05-12T00:00:54;99483.50;;;11.74;100.00
60489;BME280;46331;49.252;8.904;2023-05-12T00:01:34;99484.78;;;11.72;100.00
60489;BME280;46331;49.252;8.904;2023-05-12T00:02:15;99485.03;;;11.70;100.00
60489;BME280;46331;49.252;8.904;2023-05-12T00:02:56;99481.59;;;11.70;100.00
60489;BME280;46331;49.252;8.904;2023-05-12T00:03:37;99489.28;;;11.66;100.00
60489;BME280;46331;49.252;8.904;2023-05-12T00:04:17;99485.28;;;11.69;100.00
60489;BME280;46331;49.252;8.904;2023-05-12T00:04:58;99487.41;;;11.67;100.00
60489;BME280;46331;49.252;8.904;2023-05-12T00:05:38;99487.94;;;11.69;100.00
60489;BME280;46331;49.252;8.904;2023-05-12T00:06:19;99485.78;;;11.66;100.00
60489;BME280;46331;49.252;8.904;2023-05-12T00:07:00;99484.97;;;11.60;100.00
60489;BME280;46331;49.252;8.904;2023-05-12T00:07:40;99476.47;;;11.63;100.00
60489;BME280;46331;49.252;8.904;2023-05-12T00:08:21;99483.88;;;11.61;100.00
60489;BME280;46331;49.252;8.904;2023-05-12T00:09:02;99479.88;;;11.58;100.00
60489;BME280;46331;49.252;8.904;2023-05-12T00:09:42;99478.28;;;11.57;100.00
60489;BME280;46331;49.252;8.904;2023-05-12T00:10:23;99482.03;;;11.61;100.00
60489;BME280;46331;49.252;8.904;2023-05-12T00:11:06;99480.19;;;11.62;100.00
60489;BME280;46331;49.252;8.904;2023-05-12T00:11:46;99487.41;;;11.67;100.00
60489;BME280;46331;49.252;8.904;2023-05-12T00:12:27;99474.66;;;11.69;100.00
60489;BME280;46331;49.252;8.904;2023-05-12T00:13:08;99477.06;;;11.70;100.00
60489;BME280;46331;49.252;8.904;2023-05-12T00:13:49;99475.22;;;11.71;100.00
60489;BME280;46331;49.252;8.904;2023-05-12T00:14:29;99477.06;;;11.70;100.00
60489;BME280;46331;49.252;8.904;2023-05-12T00:15:10;99472.56;;;11.71;100.00
60489;BME280;46331;49.252;8.904;2023-05-12T00:15:51;99477.38;;;11.74;100.00
60489;BME280;46331;49.252;8.904;2023-05-12T00:16:31;99474.72;;;11.74;100.00
60489;BME280;46331;49.252;8.904;2023-05-12T00:17:12;99478.44;;;11.73;100.00
60489;BME280;46331;49.252;8.904;2023-05-12T00:17:53;99478.97;;;11.75;100.00
60489;BME280;46331;49.252;8.904;2023-05-12T00:18:33;99473.66;;;11.75;100.00
60489;BME280;46331;49.252;8.904;2023-05-12T00:19:14;99468.34;;;11.75;100.00
60489;BME280;46331;49.252;8.904;2023-05-12T00:19:54;99475.03;;;11.77;100.00
60489;BME280;46331;49.252;8.904;2023-05-12T00:20:35;99471.31;;;11.78;100.00
60489;BME280;46331;49.252;8.904;2023-05-12T00:21:15;99477.19;;;11.80;100.00
60489;BME280;46331;49.252;8.904;2023-05-12T00:21:56;99468.97;;;11.82;100.00
60489;BME280;46331;49.252;8.904;2023-05-12T00:22:38;99473.47;;;11.81;100.00
60489;BME280;46331;49.252;8.904;2023-05-12T00:23:19;99474.28;;;11.82;100.00
60489;BME280;46331;49.252;8.904;2023-05-12T00:23:59;99460.75;;;11.84;100.00
60489;BME280;46331;49.252;8.904;2023-05-12T00:24:40;99466.06;;;11.84;100.00
60489;BME280;46331;49.252;8.904;2023-05-12T00:25:20;99472.16;;;11.84;100.00
60489;BME280;46331;49.252;8.904;2023-05-12T00:26:01;99469.25;;;11.86;100.00
60489;BME280;46331;49.252;8.904;2023-05-12T00:26:42;99467.41;;;11.86;100.00
60489;BME280;46331;49.252;8.904;2023-05-12T00:27:22;99469.00;;;11.87;100.00
60489;BME280;46331;49.252;8.904;2023-05-12T00:28:03;99474.06;;;11.89;100.00
60489;BME280;46331;49.252;8.904;2023-05-12T00:28:43;99467.94;;;11.88;100.00
60489;BME280;46331;49.252;8.904;2023-05-12T00:29:24;99462.63;;;11.88;100.00
60489;BME280;46331;49.252;8.904;2023-05-12T00:30:05;99459.47;;;11.91;100.00
60489;BME280;46331;49.252;8.904;2023-05-12T00:30:46;99463.19;;;11.90;100.00
60489;BME280;46331;49.252;8.904;2023-05-12T00:31:28;99459.25;;;11.93;100.00
60489;BME280;46331;49.252;8.904;2023-05-12T00:32:09;99457.38;;;11.93;100.00
60489;BME280;46331;49.252;8.904;2023-05-12T00:32:49;99466.19;;;11.94;100.00
60489;BME280;46331;49.252;8.904;2023-05-12T00:33:31;99456.59;;;11.93;100.00
60489;BME280;46331;49.252;8.904;2023-05-12T00:34:11;99462.44;;;11.95;100.00
60489;BME280;46331;49.252;8.904;2023-05-12T00:34:52;99460.63;;;11.95;100.00
60489;BME280;46331;49.252;8.904;2023-05-12T00:35:33;99461.94;;;11.98;100.00
60489;BME280;46331;49.252;8.904;2023-05-12T00:36:14;99450.53;;;11.97;100.00
60489;BME280;46331;49.252;8.904;2023-05-12T00:36:54;99459.84;;;12.00;100.00
60489;BME280;46331;49.252;8.904;2023-05-12T00:37:35;99453.47;;;12.01;100.00
60489;BME280;46331;49.252;8.904;2023-05-12T00:38:16;99461.19;;;12.03;100.00
60489;BME280;46331;49.252;8.904;2023-05-12T00:38:56;99459.34;;;12.03;100.00
60489;BME280;46331;49.252;8.904;2023-05-12T00:39:37;99462.25;;;12.02;100.00
60489;BME280;46331;49.252;8.904;2023-05-12T00:40:18;99465.47;;;12.04;100.00
60489;BME280;46331;49.252;8.904;2023-05-12T00:41:00;99455.63;;;12.04;100.00
60489;BME280;46331;49.252;8.904;2023-05-12T00:41:40;99456.69;;;12.03;100.00
60489;BME280;46331;49.252;8.904;2023-05-12T00:42:21;99459.09;;;12.05;100.00
60489;BME280;46331;49.252;8.904;2023-05-12T00:43:01;99460.69;;;12.06;100.00
60489;BME280;46331;49.252;8.904;2023-05-12T00:43:42;99461.75;;;12.05;100.00
60489;BME280;46331;49.252;8.904;2023-05-12T00:44:23;99453.47;;;12.01;100.00
60489;BME280;46331;49.252;8.904;2023-05-12T00:45:04;99456.44;;;12.05;100.00
60489;BME280;46331;49.252;8.904;2023-05-12T00:45:45;99452.16;;;12.04;100.00
60489;BME280;46331;49.252;8.904;2023-05-12T00:46:26;99447.09;;;12.02;100.00
60489;BME280;46331;49.252;8.904;2023-05-12T00:47:07;99456.94;;;12.02;100.00
60489;BME280;46331;49.252;8.904;2023-05-12T00:47:48;99459.84;;;12.00;100.00
60489;BME280;46331;49.252;8.904;2023-05-12T00:48:31;99457.72;;;11.97;100.00
60489;BME280;46331;49.252;8.904;2023-05-12T00:49:12;99456.34;;;11.94;100.00
60489;BME280;46331;49.252;8.904;2023-05-12T00:49:53;99448.84;;;11.91;100.00
60489;BME280;46331;49.252;8.904;2023-05-12T00:50:33;99454.97;;;11.92;100.00
60489;BME280;46331;49.252;8.904;2023-05-12T00:51:15;99450.50;;;11.92;100.00
60489;BME280;46331;49.252;8.904;2023-05-12T00:51:57;99447.84;;;11.92;100.00
60489;BME280;46331;49.252;8.904;2023-05-12T00:52:38;99445.97;;;11.93;100.00
60489;BME280;46331;49.252;8.904;2023-05-12T00:53:18;99451.28;;;11.93;100.00
60489;BME280;46331;49.252;8.904;2023-05-12T00:53:59;99445.97;;;11.93;100.00
60489;BME280;46331;49.252;8.904;2023-05-12T00:54:41;99442.53;;;11.92;100.00
60489;BME280;46331;49.252;8.904;2023-05-12T00:55:23;99445.97;;;11.93;100.00
60489;BME280;46331;49.252;8.904;2023-05-12T00:56:04;99447.84;;;11.92;100.00
60489;BME280;46331;49.252;8.904;2023-05-12T00:56:46;99447.84;;;11.92;100.00
60489;BME280;46331;49.252;8.904;2023-05-12T00:57:27;99443.06;;;11.94;100.00
60489;BME280;46331;49.252;8.904;2023-05-12T00:58:08;99446.50;;;11.95;100.00
60489;BME280;46331;49.252;8.904;2023-05-12T00:58:49;99445.47;;;11.96;100.00
60489;BME280;46331;49.252;8.904;2023-05-12T00:59:31;99449.72;;;11.97;100.00
60489;BME280;46331;49.252;8.904;2023-05-12T01:00:13;99447.38;;;12.01;100.00
60489;BME280;46331;49.252;8.904;2023-05-12T01:00:56;99452.69;;;12.01;100.00
60489;BME280;46331;49.252;8.904;2023-05-12T01:01:36;99445.25;;;12.03;100.00
60489;BME280;46331;49.252;8.904;2023-05-12T01:02:17;99447.91;;;12.03;100.00
60489;BME280;46331;49.252;8.904;2023-05-12T01:02:58;99442.31;;;11.99;100.00
60489;BME280;46331;49.252;8.904;2023-05-12T01:03:43;99440.44;;;11.99;100.00
60489;BME280;46331;49.252;8.904;2023-05-12T01:04:23;99440.44;;;11.99;100.00
60489;BME280;46331;49.252;8.904;2023-05-12T01:05:05;99441.78;;;12.02;100.00
60489;BME280;46331;49.252;8.904;2023-05-12T01:05:54;99443.41;;;12.03;100.00
60489;BME280;46331;49.252;8.904;2023-05-12T01:06:42;99438.34;;;12.02;100.00
60489;BME280;46331;49.252;8.904;2023-05-12T01:07:26;99447.09;;;12.02;100.00
60489;BME280;46331;49.252;8.904;2023-05-12T01:08:07;99444.44;;;12.02;100.00
60489;BME280;46331;49.252;8.904;2023-05-12T01:08:49;99444.44;;;12.02;100.00
60489;BME280;46331;49.252;8.904;2023-05-12T01:09:30;99447.09;;;12.02;100.00
60489;BME280;46331;49.252;8.904;2023-05-12T01:10:20;99443.41;;;12.03;100.00
60489;BME280;46331;49.252;8.904;2023-05-12T01:11:00;99440.44;;;11.99;100.00
60489;BME280;46331;49.252;8.904;2023-05-12T01:11:41;99442.59;;;12.03;100.00
60489;BME280;46331;49.252;8.904;2023-05-12T01:12:22;99449.50;;;12.04;100.00
60489;BME280;46331;49.252;8.904;2023-05-12T01:13:03;99445.25;;;12.03;100.00
60489;BME280;46331;49.252;8.904;2023-05-12T01:13:44;99442.34;;;12.04;100.00
60489;BME280;46331;49.252;8.904;2023-05-12T01:14:24;99443.94;;;12.05;100.00
60489;BME280;46331;49.252;8.904;2023-05-12T01:15:09;99441.28;;;12.05;100.00
60489;BME280;46331;49.252;8.904;2023-05-12T01:15:51;99447.97;;;12.08;100.00
60489;BME280;46331;49.252;8.904;2023-05-12T01:16:45;99445.31;;;12.08;100.00
60489;BME280;46331;49.252;8.904;2023-05-12T01:17:30;99441.28;;;12.05;100.00
60489;BME280;46331;49.252;8.904;2023-05-12T01:18:14;99441.28;;;12.05;100.00
60489;BME280;46331;49.252;8.904;2023-05-12T01:18:56;99442.06;;;12.06;100.00
60489;BME280;46331;49.252;8.904;2023-05-12T01:19:40;99445.81;;;12.05;100.00
60489;BME280;46331;49.252;8.904;2023-05-12T01:20:24;99439.69;;;12.04;100.00
60489;BME280;46331;49.252;8.904;2023-05-12T01:21:06;99451.91;;;12.05;100.00
60489;BME280;46331;49.252;8.904;2023-05-12T01:21:48;99443.94;;;12.05;100.00
60489;BME280;46331;49.252;8.904;2023-05-12T01:22:30;99449.53;;;12.09;100.00
60489;BME280;46331;49.252;8.904;2023-05-12T01:23:15;99438.91;;;12.09;100.00
60489;BME280;46331;49.252;8.904;2023-05-12T01:24:00;99446.09;;;12.08;100.00
60489;BME280;46331;49.252;8.904;2023-05-12T01:24:52;99446.63;;;12.10;100.00
60489;BME280;46331;49.252;8.904;2023-05-12T01:25:34;99443.44;;;12.08;100.00
60489;BME280;46331;49.252;8.904;2023-05-12T01:26:17;99451.41;;;12.08;100.00
60489;BME280;46331;49.252;8.904;2023-05-12T01:26:59;99440.00;;;12.08;100.00
60489;BME280;46331;49.252;8.904;2023-05-12T01:27:40;99440.00;;;12.08;100.00
60489;BME280;46331;49.252;8.904;2023-05-12T01:28:22;99439.16;;;12.07;100.00
60489;BME280;46331;49.252;8.904;2023-05-12T01:29:03;99440.78;;;12.08;100.00
60489;BME280;46331;49.252;8.904;2023-05-12T01:29:46;99443.97;;;12.10;100.00
60489;BME280;46331;49.252;8.904;2023-05-12T01:30:28;99440.28;;;12.11;100.00
60489;BME280;46331;49.252;8.904;2023-05-12T01:31:08;99443.47;;;12.13;100.00
60489;BME280;46331;49.252;8.904;2023-05-12T01:31:52;99450.91;;;12.11;100.00
60489;BME280;46331;49.252;8.904;2023-05-12T01:32:34;99441.81;;;12.07;100.00
60489;BME280;46331;49.252;8.904;2023-05-12T01:33:15;99442.84;;;12.01;100.00
60489;BME280;46331;49.252;8.904;2023-05-12T01:33:56;99446.31;;;12.02;100.00
60489;BME280;46331;49.252;8.904;2023-05-12T01:34:37;99436.47;;;12.02;100.00
60489;BME280;46331;49.252;8.904;2023-05-12T01:35:18;99443.06;;;11.94;100.00
60489;BME280;46331;49.252;8.904;2023-05-12T01:36:05;99441.13;;;11.90;100.00
60489;BME280;46331;49.252;8.904;2023-05-12T01:36:46;99445.84;;;11.82;100.00
60489;BME280;46331;49.252;8.904;2023-05-12T01:37:26;99450.41;;;11.87;100.00
60489;BME280;46331;49.252;8.904;2023-05-12T01:38:08;99445.91;;;11.88;100.00
60489;BME280;46331;49.252;8.904;2023-05-12T01:38:52;99450.72;;;11.91;100.00
60489;BME280;46331;49.252;8.904;2023-05-12T01:39:33;99441.63;;;11.87;100.00
60489;BME280;46331;49.252;8.904;2023-05-12T01:40:14;99444.53;;;11.85;100.00
60489;BME280;46331;49.252;8.904;2023-05-12T01:40:56;99445.84;;;11.82;100.00
60489;BME280;46331;49.252;8.904;2023-05-12T01:41:36;99443.44;;;11.81;100.00
60489;BME280;46331;49.252;8.904;2023-05-12T01:42:17;99444.25;;;11.81;100.00
60489;BME280;46331;49.252;8.904;2023-05-12T01:42:57;99454.81;;;11.76;100.00
60489;BME280;46331;49.252;8.904;2023-05-12T01:43:40;99449.25;;;11.78;100.00
60489;BME280;46331;49.252;8.904;2023-05-12T01:44:21;99445.84;;;11.82;100.00
60489;BME280;46331;49.252;8.904;2023-05-12T01:45:02;99455.44;;;11.84;100.00
60489;BME280;46331;49.252;8.904;2023-05-12T01:45:43;99452.25;;;11.87;100.00
60489;BME280;46331;49.252;8.904;2023-05-12T01:46:23;99453.56;;;11.84;100.00
60489;BME280;46331;49.252;8.904;2023-05-12T01:47:05;99450.06;;;11.78;100.00
60489;BME280;46331;49.252;8.904;2023-05-12T01:47:49;99455.94;;;11.80;100.00
60489;BME280;46331;49.252;8.904;2023-05-12T01:48:30;99462.03;;;11.81;100.00
60489;BME280;46331;49.252;8.904;2023-05-12T01:49:12;99462.34;;;11.85;100.00
60489;BME280;46331;49.252;8.904;2023-05-12T01:49:53;99463.69;;;11.87;100.00
60489;BME280;46331;49.252;8.904;2023-05-12T01:50:33;99459.97;;;11.88;100.00
60489;BME280;46331;49.252;8.904;2023-05-12T01:51:15;99465.53;;;11.87;100.00
60489;BME280;46331;49.252;8.904;2023-05-12T01:51:56;99460.78;;;11.89;100.00
60489;BME280;46331;49.252;8.904;2023-05-12T01:52:42;99457.88;;;11.90;100.00
60489;BME280;46331;49.252;8.904;2023-05-12T01:53:26;99464.31;;;11.94;100.00
60489;BME280;46331;49.252;8.904;2023-05-12T01:54:06;99457.63;;;11.92;100.00
60489;BME280;46331;49.252;8.904;2023-05-12T01:54:51;99457.13;;;11.95;100.00
60489;BME280;46331;49.252;8.904;2023-05-12T01:55:32;99463.56;;;11.99;100.00
60489;BME280;46331;49.252;8.904;2023-05-12T01:56:13;99461.94;;;11.98;100.00
60489;BME280;46331;49.252;8.904;2023-05-12T01:56:54;99462.78;;;11.98;100.00
60489;BME280;46331;49.252;8.904;2023-05-12T01:57:35;99462.50;;;12.00;100.00
60489;BME280;46331;49.252;8.904;2023-05-12T01:58:16;99465.19;;;12.00;100.00
60489;BME280;46331;49.252;8.904;2023-05-12T01:58:59;99460.66;;;12.01;100.00
60489;BME280;46331;49.252;8.904;2023-05-12T01:59:40;99458.53;;;12.03;100.00
60489;BME280;46331;49.252;8.904;2023-05-12T02:00:21;99458.53;;;12.03;100.00
60489;BME280;46331;49.252;8.904;2023-05-12T02:01:04;99459.34;;;12.03;100.00
60489;BME280;46331;49.252;8.904;2023-05-12T02:01:44;99460.69;;;12.06;100.00
60489;BME280;46331;49.252;8.904;2023-05-12T02:02:28;99454.56;;;12.05;100.00
60489;BME280;46331;49.252;8.904;2023-05-12T02:03:10;99456.69;;;12.03;100.00
60489;BME280;46331;49.252;8.904;2023-05-12T02:03:52;99460.16;;;12.04;100.00
60489;BME280;46331;49.252;8.904;2023-05-12T02:04:33;99451.38;;;12.03;100.00
60489;BME280;46331;49.252;8.904;2023-05-12T02:05:14;99456.38;;;11.99;100.00
60489;BME280;46331;49.252;8.904;2023-05-12T02:05:58;99456.69;;;12.03;100.00
60489;BME280;46331;49.252;8.904;2023-05-12T02:06:39;99456.69;;;12.03;100.00
60489;BME280;46331;49.252;8.904;2023-05-12T02:07:19;99459.63;;;12.07;100.00
60489;BME280;46331;49.252;8.904;2023-05-12T02:08:00;99458.34;;;12.09;100.00
60489;BME280;46331;49.252;8.904;2023-05-12T02:08:43;99452.50;;;12.12;100.00
60489;BME280;46331;49.252;8.904;2023-05-12T02:09:24;99456.75;;;12.13;100.00
60489;BME280;46331;49.252;8.904;2023-05-12T02:10:08;99458.13;;;12.16;100.00
60489;BME280;46331;49.252;8.904;2023-05-12T02:10:49;99453.59;;;12.16;100.00
60489;BME280;46331;49.252;8.904;2023-05-12T02:11:30;99456.81;;;12.19;100.00
60489;BME280;46331;49.252;8.904;2023-05-12T02:12:11;99462.13;;;12.19;100.00
60489;BME280;46331;49.252;8.904;2023-05-12T02:12:51;99456.81;;;12.19;100.00
60489;BME280;46331;49.252;8.904;2023-05-12T02:13:32;99455.22;;;12.18;100.00
60489;BME280;46331;49.252;8.904;2023-05-12T02:14:14;99452.28;;;12.19;100.00
60489;BME280;46331;49.252;8.904;2023-05-12T02:14:54;99456.81;;;12.19;100.00
60489;BME280;46331;49.252;8.904;2023-05-12T02:15:35;99458.41;;;12.20;100.00
60489;BME280;46331;49.252;8.904;2023-05-12T02:16:16;99451.25;;;12.20;100.00
60489;BME280;46331;49.252;8.904;2023-05-12T02:16:56;99454.69;;;12.21;100.00
60489;BME280;46331;49.252;8.904;2023-05-12T02:17:39;99453.34;;;12.18;100.00
60489;BME280;46331;49.252;8.904;2023-05-12T02:18:20;99455.72;;;12.14;100.00
60489;BME280;46331;49.252;8.904;2023-05-12T02:19:01;99454.94;;;12.14;100.00
60489;BME280;46331;49.252;8.904;2023-05-12T02:19:41;99456.22;;;12.11;100.00
60489;BME280;46331;49.252;8.904;2023-05-12T02:20:23;99451.41;;;12.08;100.00
60489;BME280;46331;49.252;8.904;2023-05-12T02:21:03;99455.13;;;12.07;100.00
60489;BME280;46331;49.252;8.904;2023-05-12T02:21:44;99451.66;;;12.07;100.00
60489;BME280;46331;49.252;8.904;2023-05-12T02:22:25;99445.00;;;12.04;100.00
60489;BME280;46331;49.252;8.904;2023-05-12T02:23:06;99452.44;;;12.02;100.00
60489;BME280;46331;49.252;8.904;2023-05-12T02:23:47;99454.53;;;12.00;100.00
60489;BME280;46331;49.252;8.904;2023-05-12T02:24:27;99455.34;;;12.01;100.00
60489;BME280;46331;49.252;8.904;2023-05-12T02:25:08;99445.75;;;11.99;100.00
60489;BME280;46331;49.252;8.904;2023-05-12T02:25:49;99452.38;;;11.97;100.00
60489;BME280;46331;49.252;8.904;2023-05-12T02:26:30;99455.31;;;11.95;100.00
60489;BME280;46331;49.252;8.904;2023-05-12T02:27:13;99445.41;;;11.91;100.00
60489;BME280;46331;49.252;8.904;2023-05-12T02:27:53;99453.63;;;11.89;100.00
60489;BME280;46331;49.252;8.904;2023-05-12T02:28:34;99446.41;;;11.85;100.00
60489;BME280;46331;49.252;8.904;2023-05-12T02:29:15;99442.66;;;11.80;100.00
60489;BME280;46331;49.252;8.904;2023-05-12T02:29:56;99450.31;;;11.77;100.00
60489;BME280;46331;49.252;8.904;2023-05-12T02:30:37;99451.63;;;11.74;100.00
60489;BME280;46331;49.252;8.904;2023-05-12T02:31:19;99449.47;;;11.71;100.00
60489;BME280;46331;49.252;8.904;2023-05-12T02:31:59;99453.41;;;11.69;100.00
60489;BME280;46331;49.252;8.904;2023-05-12T02:32:40;99450.47;;;11.65;100.00
60489;BME280;46331;49.252;8.904;2023-05-12T02:33:22;99454.41;;;11.62;100.00
60489;BME280;46331;49.252;8.904;2023-05-12T02:34:03;99447.78;;;11.60;100.00
60489;BME280;46331;49.252;8.904;2023-05-12T02:34:44;99446.16;;;11.59;100.00
60489;BME280;46331;49.252;8.904;2023-05-12T02:35:25;99454.63;;;11.56;100.00
60489;BME280;46331;49.252;8.904;2023-05-12T02:36:06;99453.00;;;11.55;100.00
60489;BME280;46331;49.252;8.904;2023-05-12T02:36:46;99451.69;;;11.52;100.00
60489;BME280;46331;49.252;8.904;2023-05-12T02:37:27;99457.25;;;11.51;100.00
60489;BME280;46331;49.252;8.904;2023-05-12T02:38:07;99450.56;;;11.48;100.00
60489;BME280;46331;49.252;8.904;2023-05-12T02:38:48;99461.97;;;11.49;100.00
60489;BME280;46331;49.252;8.904;2023-05-12T02:39:29;99450.81;;;11.47;100.00
60489;BME280;46331;49.252;8.904;2023-05-12T02:40:10;99460.63;;;11.46;100.00
60489;BME280;46331;49.252;8.904;2023-05-12T02:40:54;99459.03;;;11.45;100.00
60489;BME280;46331;49.252;8.904;2023-05-12T02:41:35;99447.38;;;11.46;100.00
60489;BME280;46331;49.252;8.904;2023-05-12T02:42:15;99458.78;;;11.47;100.00
60489;BME280;46331;49.252;8.904;2023-05-12T02:42:56;99448.16;;;11.47;100.00
60489;BME280;46331;49.252;8.904;2023-05-12T02:43:36;99451.06;;;11.45;100.00
60489;BME280;46331;49.252;8.904;2023-05-12T02:44:17;99453.97;;;11.43;100.00
60489;BME280;46331;49.252;8.904;2023-05-12T02:45:00;99453.97;;;11.43;100.00
60489;BME280;46331;49.252;8.904;2023-05-12T02:45:41;99458.47;;;11.43;100.00
60489;BME280;46331;49.252;8.904;2023-05-12T02:46:22;99453.41;;;11.41;100.00
60489;BME280;46331;49.252;8.904;2023-05-12T02:47:03;99446.50;;;11.40;100.00
60489;BME280;46331;49.252;8.904;2023-05-12T02:47:43;99453.91;;;11.38;100.00
60489;BME280;46331;49.252;8.904;2023-05-12T02:48:24;99451.25;;;11.38;100.00
60489;BME280;46331;49.252;8.904;2023-05-12T02:49:06;99451.75;;;11.35;100.00
60489;BME280;46331;49.252;8.904;2023-05-12T02:49:46;99452.81;;;11.34;100.00
60489;BME280;46331;49.252;8.904;2023-05-12T02:50:27;99455.47;;;11.34;100.00
60489;BME280;46331;49.252;8.904;2023-05-12T02:51:07;99456.25;;;11.35;100.00
60489;BME280;46331;49.252;8.904;2023-05-12T02:51:50;99445.09;;;11.33;100.00
60489;BME280;46331;49.252;8.904;2023-05-12T02:52:31;99446.94;;;11.32;100.00
60489;BME280;46331;49.252;8.904;2023-05-12T02:53:12;99454.66;;;11.34;100.00
60489;BME280;46331;49.252;8.904;2023-05-12T02:53:52;99455.72;;;11.33;100.00
60489;BME280;46331;49.252;8.904;2023-05-12T02:54:33;99455.72;;;11.33;100.00
60489;BME280;46331;49.252;8.904;2023-05-12T02:55:13;99449.59;;;11.32;100.00
60489;BME280;46331;49.252;8.904;2023-05-12T02:55:54;99446.94;;;11.32;100.00
60489;BME280;46331;49.252;8.904;2023-05-12T02:56:35;99446.69;;;11.34;100.00
60489;BME280;46331;49.252;8.904;2023-05-12T02:57:15;99442.44;;;11.33;100.00
60489;BME280;46331;49.252;8.904;2023-05-12T02:57:56;99450.41;;;11.33;100.00
60489;BME280;46331;49.252;8.904;2023-05-12T02:58:36;99452.00;;;11.34;100.00
60489;BME280;46331;49.252;8.904;2023-05-12T02:59:17;99452.81;;;11.34;100.00
60489;BME280;46331;49.252;8.904;2023-05-12T02:59:58;99447.50;;;11.34;100.00
60489;BME280;46331;49.252;8.904;2023-05-12T03:00:39;99451.75;;;11.35;100.00
60489;BME280;46331;49.252;8.904;2023-05-12T03:01:19;99451.75;;;11.35;100.00
60489;BME280;46331;49.252;8.904;2023-05-12T03:02:01;99451.50;;;11.37;100.00
60489;BME280;46331;49.252;8.904;2023-05-12T03:02:41;99445.13;;;11.38;100.00
60489;BME280;46331;49.252;8.904;2023-05-12T03:03:22;99454.47;;;11.40;100.00
60489;BME280;46331;49.252;8.904;2023-05-12T03:04:02;99448.09;;;11.41;100.00
60489;BME280;46331;49.252;8.904;2023-05-12T03:04:43;99452.94;;;11.44;100.00
60489;BME280;46331;49.252;8.904;2023-05-12T03:05:24;99455.56;;;11.44;100.00
60489;BME280;46331;49.252;8.904;2023-05-12T03:06:05;99457.97;;;11.46;100.00
60489;BME280;46331;49.252;8.904;2023-05-12T03:06:45;99451.84;;;11.45;100.00
60489;BME280;46331;49.252;8.904;2023-05-12T03:07:26;99452.97;;;11.50;100.00
60489;BME280;46331;49.252;8.904;2023-05-12T03:08:07;99457.25;;;11.51;100.00
60489;BME280;46331;49.252;8.904;2023-05-12T03:08:48;99451.69;;;11.52;100.00
60489;BME280;46331;49.252;8.904;2023-05-12T03:09:28;99451.94;;;11.51;100.00
60489;BME280;46331;49.252;8.904;2023-05-12T03:10:09;99454.09;;;11.54;100.00
60489;BME280;46331;49.252;8.904;2023-05-12T03:10:50;99452.22;;;11.54;100.00
60489;BME280;46331;49.252;8.904;2023-05-12T03:11:30;99451.44;;;11.54;100.00
60489;BME280;46331;49.252;8.904;2023-05-12T03:12:11;99451.44;;;11.54;100.00
60489;BME280;46331;49.252;8.904;2023-05-12T03:12:51;99452.22;;;11.54;100.00
60489;BME280;46331;49.252;8.904;2023-05-12T03:13:32;99457.28;;;11.56;100.00
60489;BME280;46331;49.252;8.904;2023-05-12T03:14:12;99453.00;;;11.55;100.00
60489;BME280;46331;49.252;8.904;2023-05-12T03:14:54;99452.75;;;11.56;100.00
60489;BME280;46331;49.252;8.904;2023-05-12T03:15:34;99451.72;;;11.57;100.00
60489;BME280;46331;49.252;8.904;2023-05-12T03:16:16;99446.94;;;11.59;100.00
60489;BME280;46331;49.252;8.904;2023-05-12T03:16:57;99446.16;;;11.59;100.00
60489;BME280;46331;49.252;8.904;2023-05-12T03:17:38;99454.66;;;11.61;100.00
60489;BME280;46331;49.252;8.904;2023-05-12T03:18:19;99455.25;;;11.63;100.00
60489;BME280;46331;49.252;8.904;2023-05-12T03:19:00;99452.00;;;11.61;100.00
60489;BME280;46331;49.252;8.904;2023-05-12T03:19:41;99451.50;;;11.64;100.00
60489;BME280;46331;49.252;8.904;2023-05-12T03:20:21;99450.97;;;11.62;100.00
60489;BME280;46331;49.252;8.904;2023-05-12T03:21:02;99455.53;;;11.67;100.00
60489;BME280;46331;49.252;8.904;2023-05-12T03:21:43;99454.75;;;11.66;100.00
60489;BME280;46331;49.252;8.904;2023-05-12T03:22:23;99452.34;;;11.65;100.00
60489;BME280;46331;49.252;8.904;2023-05-12T03:23:04;99447.56;;;11.67;100.00
60489;BME280;46331;49.252;8.904;2023-05-12T03:23:44;99450.22;;;11.67;100.00
60489;BME280;46331;49.252;8.904;2023-05-12T03:24:25;99453.91;;;11.66;100.00
60489;BME280;46331;49.252;8.904;2023-05-12T03:25:07;99451.25;;;11.66;100.00
60489;BME280;46331;49.252;8.904;2023-05-12T03:25:48;99451.50;;;11.64;100.00
60489;BME280;46331;49.252;8.904;2023-05-12T03:26:32;99441.13;;;11.62;100.00
60489;BME280;46331;49.252;8.904;2023-05-12T03:27:12;99454.41;;;11.62;100.00
60489;BME280;46331;49.252;8.904;2023-05-12T03:27:53;99447.53;;;11.61;100.00
60489;BME280;46331;49.252;8.904;2023-05-12T03:28:33;99449.94;;;11.63;100.00
60489;BME280;46331;49.252;8.904;2023-05-12T03:29:14;99447.28;;;11.63;100.00
60489;BME280;46331;49.252;8.904;2023-05-12T03:29:54;99448.06;;;11.63;100.00
60489;BME280;46331;49.252;8.904;2023-05-12T03:30:35;99451.00;;;11.67;100.00
60489;BME280;46331;49.252;8.904;2023-05-12T03:31:16;99448.31;;;11.62;100.00
60489;BME280;46331;49.252;8.904;2023-05-12T03:31:57;99453.13;;;11.65;100.00
60489;BME280;46331;49.252;8.904;2023-05-12T03:32:37;99449.44;;;11.66;100.00
60489;BME280;46331;49.252;8.904;2023-05-12T03:33:18;99448.34;;;11.67;100.00
60489;BME280;46331;49.252;8.904;2023-05-12T03:33:59;99452.09;;;11.66;100.00
60489;BME280;46331;49.252;8.904;2023-05-12T03:34:40;99447.06;;;11.70;100.00
60489;BME280;46331;49.252;8.904;2023-05-12T03:35:21;99456.63;;;11.71;100.00
60489;BME280;46331;49.252;8.904;2023-05-12T03:36:02;99451.06;;;11.72;100.00